sensor_id;sensor_type;location;lat;lon;timestamp;P1;durP1;ratioP1;P2;durP2;ratioP2
44130;SDS011;29792;48.726;9.248;2023-08-24T00:01:03;4.55;;;3.55;;
44130;SDS011;29792;48.726;9.248;2023-08-24T00:03:28;4.90;;;3.53;;
44130;SDS011;29792;48.726;9.248;2023-08-24T00:05:53;4.82;;;4.10;;
44130;SDS011;29792;48.726;9.248;2023-08-24T00:08:19;4.60;;;3.85;;
44130;SDS011;29792;48.726;9.248;2023-08-24T00:10:44;4.40;;;4.00;;
44130;SDS011;29792;48.726;9.248;2023-08-24T00:13:13;7.97;;;3.97;;
44130;SDS011;29792;48.726;9.248;2023-08-24T00:15:39;4.35;;;3.95;;
44130;SDS011;29792;48.726;9.248;2023-08-24T00:18:04;4.65;;;3.83;;
44130;SDS011;29792;48.726;9.248;2023-08-24T00:20:30;5.78;;;3.78;;
44130;SDS011;29792;48.726;9.248;2023-08-24T00:22:57;4.15;;;3.70;;
44130;SDS011;29792;48.726;9.248;2023-08-24T00:25:23;3.80;;;3.50;;
44130;SDS011;29792;48.726;9.248;2023-08-24T00:27:48;4.15;;;3.65;;
44130;SDS011;29792;48.726;9.248;2023-08-24T00:30:14;4.15;;;3.67;;
44130;SDS011;29792;48.726;9.248;2023-08-24T00:32:39;4.45;;;4.05;;
44130;SDS011;29792;48.726;9.248;2023-08-24T00:35:05;5.35;;;4.10;;
44130;SDS011;29792;48.726;9.248;2023-08-24T00:37:31;6.38;;;4.32;;
44130;SDS011;29792;48.726;9.248;2023-08-24T00:39:57;5.10;;;4.60;;
44130;SDS011;29792;48.726;9.248;2023-08-24T00:42:24;4.60;;;4.20;;
44130;SDS011;29792;48.726;9.248;2023-08-24T00:44:49;4.65;;;4.25;;
44130;SDS011;29792;48.726;9.248;2023-08-24T00:47:15;6.03;;;5.40;;
44130;SDS011;29792;48.726;9.248;2023-08-24T00:49:41;4.93;;;4.43;;
44130;SDS011;29792;48.726;9.248;2023-08-24T00:52:07;7.03;;;4.57;;
44130;SDS011;29792;48.726;9.248;2023-08-24T00:54:33;5.13;;;4.18;;
44130;SDS011;29792;48.726;9.248;2023-08-24T00:56:58;6.72;;;4.80;;
44130;SDS011;29792;48.726;9.248;2023-08-24T00:59:24;5.85;;;5.25;;
44130;SDS011;29792;48.726;9.248;2023-08-24T01:01:49;6.57;;;5.80;;
44130;SDS011;29792;48.726;9.248;2023-08-24T01:04:15;6.03;;;5.47;;
44130;SDS011;29792;48.726;9.248;2023-08-24T01:06:41;5.03;;;4.25;;
44130;SDS011;29792;48.726;9.248;2023-08-24T01:09:06;5.22;;;4.72;;
44130;SDS011;29792;48.726;9.248;2023-08-24T01:11:47;5.30;;;4.80;;
44130;SDS011;29792;48.726;9.248;2023-08-24T01:14:44;5.80;;;5.20;;
44130;SDS011;29792;48.726;9.248;2023-08-24T01:17:18;6.57;;;5.13;;
44130;SDS011;29792;48.726;9.248;2023-08-24T01:19:47;8.90;;;6.13;;
44130;SDS011;29792;48.726;9.248;2023-08-24T01:25:14;6.25;;;5.05;;
44130;SDS011;29792;48.726;9.248;2023-08-24T01:27:40;5.95;;;5.28;;
44130;SDS011;29792;48.726;9.248;2023-08-24T01:30:07;6.60;;;6.00;;
44130;SDS011;29792;48.726;9.248;2023-08-24T01:32:34;7.20;;;6.00;;
44130;SDS011;29792;48.726;9.248;2023-08-24T01:35:02;6.38;;;5.55;;
44130;SDS011;29792;48.726;9.248;2023-08-24T01:37:30;6.03;;;5.50;;
44130;SDS011;29792;48.726;9.248;2023-08-24T01:40:05;6.22;;;5.63;;
44130;SDS011;29792;48.726;9.248;2023-08-24T01:43:05;7.50;;;5.15;;
44130;SDS011;29792;48.726;9.248;2023-08-24T01:45:32;6.63;;;6.03;;
44130;SDS011;29792;48.726;9.248;2023-08-24T01:47:59;6.10;;;5.60;;
44130;SDS011;29792;48.726;9.248;2023-08-24T01:50:27;6.93;;;5.15;;
44130;SDS011;29792;48.726;9.248;2023-08-24T01:52:54;5.80;;;5.28;;
44130;SDS011;29792;48.726;9.248;2023-08-24T01:55:20;6.25;;;5.65;;
44130;SDS011;29792;48.726;9.248;2023-08-24T01:57:45;5.72;;;5.18;;
44130;SDS011;29792;48.726;9.248;2023-08-24T02:00:11;5.93;;;5.43;;
44130;SDS011;29792;48.726;9.248;2023-08-24T02:02:37;6.15;;;5.18;;
44130;SDS011;29792;48.726;9.248;2023-08-24T02:05:03;5.68;;;5.15;;
44130;SDS011;29792;48.726;9.248;2023-08-24T02:07:28;6.32;;;5.72;;
44130;SDS011;29792;48.726;9.248;2023-08-24T02:09:54;5.97;;;5.47;;
44130;SDS011;29792;48.726;9.248;2023-08-24T02:12:19;5.90;;;4.50;;
44130;SDS011;29792;48.726;9.248;2023-08-24T02:14:45;5.82;;;5.32;;
44130;SDS011;29792;48.726;9.248;2023-08-24T02:17:10;5.45;;;4.95;;
44130;SDS011;29792;48.726;9.248;2023-08-24T02:19:35;5.95;;;5.35;;
44130;SDS011;29792;48.726;9.248;2023-08-24T02:22:01;4.88;;;4.47;;
44130;SDS011;29792;48.726;9.248;2023-08-24T02:24:26;4.95;;;4.50;;
44130;SDS011;29792;48.726;9.248;2023-08-24T02:26:51;6.38;;;4.55;;
44130;SDS011;29792;48.726;9.248;2023-08-24T02:29:17;6.22;;;5.30;;
44130;SDS011;29792;48.726;9.248;2023-08-24T02:31:42;6.18;;;5.50;;
44130;SDS011;29792;48.726;9.248;2023-08-24T02:34:07;6.50;;;4.25;;
44130;SDS011;29792;48.726;9.248;2023-08-24T02:36:32;5.28;;;4.88;;
44130;SDS011;29792;48.726;9.248;2023-08-24T02:38:58;5.85;;;5.25;;
44130;SDS011;29792;48.726;9.248;2023-08-24T02:41:24;6.20;;;4.70;;
44130;SDS011;29792;48.726;9.248;2023-08-24T02:43:50;5.47;;;4.97;;
44130;SDS011;29792;48.726;9.248;2023-08-24T02:46:15;4.95;;;4.55;;
44130;SDS011;29792;48.726;9.248;2023-08-24T02:48:40;5.18;;;4.70;;
44130;SDS011;29792;48.726;9.248;2023-08-24T02:51:07;5.50;;;4.72;;
44130;SDS011;29792;48.726;9.248;2023-08-24T02:53:33;4.45;;;3.97;;
44130;SDS011;29792;48.726;9.248;2023-08-24T02:55:58;4.50;;;4.10;;
44130;SDS011;29792;48.726;9.248;2023-08-24T02:58:24;4.35;;;3.75;;
44130;SDS011;29792;48.726;9.248;2023-08-24T03:00:49;5.07;;;4.65;;
44130;SDS011;29792;48.726;9.248;2023-08-24T03:03:14;11.95;;;4.13;;
44130;SDS011;29792;48.726;9.248;2023-08-24T03:05:40;5.03;;;4.15;;
44130;SDS011;29792;48.726;9.248;2023-08-24T03:08:06;4.40;;;3.65;;
44130;SDS011;29792;48.726;9.248;2023-08-24T03:10:34;4.82;;;4.05;;
44130;SDS011;29792;48.726;9.248;2023-08-24T03:13:00;3.97;;;3.67;;
44130;SDS011;29792;48.726;9.248;2023-08-24T03:15:25;5.80;;;4.50;;
44130;SDS011;29792;48.726;9.248;2023-08-24T03:17:50;6.20;;;4.25;;
44130;SDS011;29792;48.726;9.248;2023-08-24T03:20:17;5.97;;;4.65;;
44130;SDS011;29792;48.726;9.248;2023-08-24T03:22:43;7.55;;;4.50;;
44130;SDS011;29792;48.726;9.248;2023-08-24T03:25:08;5.25;;;4.57;;
44130;SDS011;29792;48.726;9.248;2023-08-24T03:27:33;4.95;;;4.43;;
44130;SDS011;29792;48.726;9.248;2023-08-24T03:29:59;4.72;;;4.22;;
44130;SDS011;29792;48.726;9.248;2023-08-24T03:32:24;4.35;;;3.95;;
44130;SDS011;29792;48.726;9.248;2023-08-24T03:34:49;4.20;;;3.78;;
44130;SDS011;29792;48.726;9.248;2023-08-24T03:37:14;5.05;;;4.55;;
44130;SDS011;29792;48.726;9.248;2023-08-24T03:39:40;4.80;;;4.32;;
44130;SDS011;29792;48.726;9.248;2023-08-24T03:42:06;5.00;;;4.53;;
44130;SDS011;29792;48.726;9.248;2023-08-24T03:44:31;5.35;;;4.60;;
44130;SDS011;29792;48.726;9.248;2023-08-24T03:46:56;5.15;;;4.60;;
44130;SDS011;29792;48.726;9.248;2023-08-24T03:49:22;5.25;;;4.60;;
44130;SDS011;29792;48.726;9.248;2023-08-24T03:51:47;7.13;;;5.28;;
44130;SDS011;29792;48.726;9.248;2023-08-24T03:54:13;5.43;;;4.93;;
44130;SDS011;29792;48.726;9.248;2023-08-24T03:56:38;6.80;;;6.10;;
44130;SDS011;29792;48.726;9.248;2023-08-24T03:59:04;6.20;;;5.10;;
44130;SDS011;29792;48.726;9.248;2023-08-24T04:01:29;5.65;;;5.10;;
44130;SDS011;29792;48.726;9.248;2023-08-24T04:03:54;6.00;;;5.38;;
44130;SDS011;29792;48.726;9.248;2023-08-24T04:06:19;6.22;;;5.20;;
44130;SDS011;29792;48.726;9.248;2023-08-24T04:08:45;5.40;;;4.90;;
44130;SDS011;29792;48.726;9.248;2023-08-24T04:11:10;6.88;;;5.00;;
44130;SDS011;29792;48.726;9.248;2023-08-24T04:13:35;7.55;;;4.90;;
44130;SDS011;29792;48.726;9.248;2023-08-24T04:16:00;5.32;;;4.82;;
44130;SDS011;29792;48.726;9.248;2023-08-24T04:18:26;6.40;;;5.80;;
44130;SDS011;29792;48.726;9.248;2023-08-24T04:20:52;6.55;;;5.00;;
44130;SDS011;29792;48.726;9.248;2023-08-24T04:23:23;5.53;;;5.13;;
44130;SDS011;29792;48.726;9.248;2023-08-24T04:25:49;5.05;;;4.65;;
44130;SDS011;29792;48.726;9.248;2023-08-24T04:28:14;9.10;;;6.25;;
44130;SDS011;29792;48.726;9.248;2023-08-24T04:30:39;6.13;;;5.63;;
44130;SDS011;29792;48.726;9.248;2023-08-24T04:33:04;5.68;;;5.10;;
44130;SDS011;29792;48.726;9.248;2023-08-24T04:35:30;5.97;;;5.38;;
44130;SDS011;29792;48.726;9.248;2023-08-24T04:37:58;6.75;;;6.13;;
44130;SDS011;29792;48.726;9.248;2023-08-24T04:40:24;5.88;;;5.28;;
44130;SDS011;29792;48.726;9.248;2023-08-24T04:42:49;10.13;;;6.93;;
44130;SDS011;29792;48.726;9.248;2023-08-24T04:45:14;6.13;;;5.53;;
44130;SDS011;29792;48.726;9.248;2023-08-24T04:47:39;6.03;;;5.43;;
44130;SDS011;29792;48.726;9.248;2023-08-24T04:50:05;6.30;;;5.68;;
44130;SDS011;29792;48.726;9.248;2023-08-24T04:52:31;6.13;;;5.47;;
44130;SDS011;29792;48.726;9.248;2023-08-24T04:54:56;7.53;;;5.95;;
44130;SDS011;29792;48.726;9.248;2023-08-24T04:57:21;5.90;;;5.00;;
44130;SDS011;29792;48.726;9.248;2023-08-24T04:59:46;7.53;;;5.15;;
44130;SDS011;29792;48.726;9.248;2023-08-24T05:02:11;5.82;;;5.20;;
44130;SDS011;29792;48.726;9.248;2023-08-24T05:04:37;7.68;;;5.47;;
44130;SDS011;29792;48.726;9.248;2023-08-24T05:07:02;12.88;;;7.68;;
44130;SDS011;29792;48.726;9.248;2023-08-24T05:09:27;6.70;;;5.90;;
44130;SDS011;29792;48.726;9.248;2023-08-24T05:11:52;7.22;;;6.57;;
44130;SDS011;29792;48.726;9.248;2023-08-24T05:14:18;7.53;;;5.75;;
44130;SDS011;29792;48.726;9.248;2023-08-24T05:16:43;7.25;;;6.60;;
44130;SDS011;29792;48.726;9.248;2023-08-24T05:19:08;5.25;;;4.85;;
44130;SDS011;29792;48.726;9.248;2023-08-24T05:21:33;6.97;;;4.97;;
44130;SDS011;29792;48.726;9.248;2023-08-24T05:23:59;6.95;;;5.97;;
44130;SDS011;29792;48.726;9.248;2023-08-24T05:26:24;5.90;;;5.30;;
44130;SDS011;29792;48.726;9.248;2023-08-24T05:28:49;9.82;;;4.95;;
44130;SDS011;29792;48.726;9.248;2023-08-24T05:31:15;7.85;;;5.45;;
44130;SDS011;29792;48.726;9.248;2023-08-24T05:33:40;6.32;;;5.10;;
44130;SDS011;29792;48.726;9.248;2023-08-24T05:36:06;5.68;;;5.18;;
44130;SDS011;29792;48.726;9.248;2023-08-24T05:38:31;7.15;;;4.82;;
44130;SDS011;29792;48.726;9.248;2023-08-24T05:40:56;5.28;;;4.82;;
44130;SDS011;29792;48.726;9.248;2023-08-24T05:43:21;6.20;;;5.30;;
44130;SDS011;29792;48.726;9.248;2023-08-24T05:45:47;5.63;;;4.95;;
44130;SDS011;29792;48.726;9.248;2023-08-24T05:48:13;6.85;;;4.95;;
44130;SDS011;29792;48.726;9.248;2023-08-24T05:50:42;8.63;;;5.85;;
44130;SDS011;29792;48.726;9.248;2023-08-24T05:53:08;5.85;;;5.18;;
44130;SDS011;29792;48.726;9.248;2023-08-24T05:55:34;8.15;;;4.68;;
44130;SDS011;29792;48.726;9.248;2023-08-24T05:57:59;5.30;;;4.80;;
44130;SDS011;29792;48.726;9.248;2023-08-24T06:00:24;6.47;;;5.85;;
44130;SDS011;29792;48.726;9.248;2023-08-24T06:02:49;9.63;;;5.25;;
44130;SDS011;29792;48.726;9.248;2023-08-24T06:05:15;6.03;;;5.47;;
44130;SDS011;29792;48.726;9.248;2023-08-24T06:07:42;5.78;;;4.85;;
44130;SDS011;29792;48.726;9.248;2023-08-24T06:10:07;5.43;;;4.75;;
44130;SDS011;29792;48.726;9.248;2023-08-24T06:12:33;5.38;;;4.70;;
44130;SDS011;29792;48.726;9.248;2023-08-24T06:14:58;7.63;;;5.35;;
44130;SDS011;29792;48.726;9.248;2023-08-24T06:17:27;5.20;;;4.72;;
44130;SDS011;29792;48.726;9.248;2023-08-24T06:19:52;6.07;;;4.32;;
44130;SDS011;29792;48.726;9.248;2023-08-24T06:22:17;7.72;;;5.97;;
44130;SDS011;29792;48.726;9.248;2023-08-24T06:24:42;9.65;;;5.53;;
44130;SDS011;29792;48.726;9.248;2023-08-24T06:27:07;5.60;;;4.20;;
44130;SDS011;29792;48.726;9.248;2023-08-24T06:29:33;5.00;;;4.57;;
44130;SDS011;29792;48.726;9.248;2023-08-24T06:31:59;6.35;;;4.90;;
44130;SDS011;29792;48.726;9.248;2023-08-24T06:34:24;6.40;;;4.72;;
44130;SDS011;29792;48.726;9.248;2023-08-24T06:36:50;5.43;;;4.93;;
44130;SDS011;29792;48.726;9.248;2023-08-24T06:39:15;5.38;;;4.10;;
44130;SDS011;29792;48.726;9.248;2023-08-24T06:41:41;5.88;;;4.90;;
44130;SDS011;29792;48.726;9.248;2023-08-24T06:44:06;8.07;;;5.63;;
44130;SDS011;29792;48.726;9.248;2023-08-24T06:46:31;6.80;;;4.53;;
44130;SDS011;29792;48.726;9.248;2023-08-24T06:48:56;5.15;;;4.65;;
44130;SDS011;29792;48.726;9.248;2023-08-24T06:51:22;5.50;;;4.63;;
44130;SDS011;29792;48.726;9.248;2023-08-24T06:53:47;7.50;;;6.03;;
44130;SDS011;29792;48.726;9.248;2023-08-24T06:56:13;9.27;;;6.18;;
44130;SDS011;29792;48.726;9.248;2023-08-24T06:58:40;7.72;;;6.03;;
44130;SDS011;29792;48.726;9.248;2023-08-24T07:01:05;7.13;;;4.93;;
44130;SDS011;29792;48.726;9.248;2023-08-24T07:03:31;9.93;;;4.20;;
44130;SDS011;29792;48.726;9.248;2023-08-24T07:05:58;5.28;;;4.63;;
44130;SDS011;29792;48.726;9.248;2023-08-24T07:08:23;5.55;;;4.20;;
44130;SDS011;29792;48.726;9.248;2023-08-24T07:10:49;3.92;;;3.35;;
44130;SDS011;29792;48.726;9.248;2023-08-24T07:13:14;4.43;;;4.03;;
44130;SDS011;29792;48.726;9.248;2023-08-24T07:15:39;40.60;;;6.60;;
44130;SDS011;29792;48.726;9.248;2023-08-24T07:18:04;7.00;;;3.85;;
44130;SDS011;29792;48.726;9.248;2023-08-24T07:20:32;13.68;;;6.15;;
44130;SDS011;29792;48.726;9.248;2023-08-24T07:22:57;5.72;;;4.68;;
44130;SDS011;29792;48.726;9.248;2023-08-24T07:25:22;9.40;;;4.82;;
44130;SDS011;29792;48.726;9.248;2023-08-24T07:27:48;5.90;;;4.25;;
44130;SDS011;29792;48.726;9.248;2023-08-24T07:30:13;7.63;;;5.78;;
44130;SDS011;29792;48.726;9.248;2023-08-24T07:32:38;6.50;;;5.18;;
44130;SDS011;29792;48.726;9.248;2023-08-24T07:35:04;7.88;;;4.65;;
44130;SDS011;29792;48.726;9.248;2023-08-24T07:37:31;4.43;;;4.03;;
44130;SDS011;29792;48.726;9.248;2023-08-24T07:39:56;7.80;;;5.18;;
44130;SDS011;29792;48.726;9.248;2023-08-24T07:42:22;6.32;;;4.68;;
44130;SDS011;29792;48.726;9.248;2023-08-24T07:44:47;5.68;;;4.72;;
44130;SDS011;29792;48.726;9.248;2023-08-24T07:47:13;23.15;;;7.15;;
44130;SDS011;29792;48.726;9.248;2023-08-24T07:49:39;6.45;;;5.63;;
44130;SDS011;29792;48.726;9.248;2023-08-24T07:52:09;6.38;;;4.60;;
44130;SDS011;29792;48.726;9.248;2023-08-24T07:54:34;4.20;;;3.80;;
44130;SDS011;29792;48.726;9.248;2023-08-24T07:57:00;6.22;;;5.22;;
44130;SDS011;29792;48.726;9.248;2023-08-24T07:59:26;5.07;;;4.35;;
44130;SDS011;29792;48.726;9.248;2023-08-24T08:01:51;4.88;;;4.05;;
44130;SDS011;29792;48.726;9.248;2023-08-24T08:04:16;7.50;;;5.18;;
44130;SDS011;29792;48.726;9.248;2023-08-24T08:06:41;5.15;;;4.15;;
44130;SDS011;29792;48.726;9.248;2023-08-24T08:09:07;7.40;;;5.50;;
44130;SDS011;29792;48.726;9.248;2023-08-24T08:11:32;10.68;;;7.43;;
44130;SDS011;29792;48.726;9.248;2023-08-24T08:13:57;5.55;;;4.47;;
44130;SDS011;29792;48.726;9.248;2023-08-24T08:16:22;8.82;;;4.28;;
44130;SDS011;29792;48.726;9.248;2023-08-24T08:18:48;8.00;;;4.72;;
44130;SDS011;29792;48.726;9.248;2023-08-24T08:21:16;7.00;;;4.45;;
44130;SDS011;29792;48.726;9.248;2023-08-24T08:23:43;5.88;;;4.75;;
44130;SDS011;29792;48.726;9.248;2023-08-24T08:26:10;7.68;;;4.95;;
44130;SDS011;29792;48.726;9.248;2023-08-24T08:28:35;4.28;;;3.80;;
44130;SDS011;29792;48.726;9.248;2023-08-24T08:31:00;5.38;;;4.88;;
44130;SDS011;29792;48.726;9.248;2023-08-24T08:33:26;4.30;;;3.90;;
44130;SDS011;29792;48.726;9.248;2023-08-24T08:35:51;4.95;;;3.70;;
44130;SDS011;29792;48.726;9.248;2023-08-24T08:38:16;6.05;;;4.15;;
44130;SDS011;29792;48.726;9.248;2023-08-24T08:40:42;4.47;;;3.97;;
44130;SDS011;29792;48.726;9.248;2023-08-24T08:43:08;3.80;;;3.50;;
44130;SDS011;29792;48.726;9.248;2023-08-24T08:45:34;5.15;;;4.05;;
44130;SDS011;29792;48.726;9.248;2023-08-24T08:48:00;5.30;;;3.20;;
44130;SDS011;29792;48.726;9.248;2023-08-24T08:50:26;3.58;;;3.28;;
44130;SDS011;29792;48.726;9.248;2023-08-24T08:52:52;5.90;;;3.83;;
44130;SDS011;29792;48.726;9.248;2023-08-24T08:55:18;5.95;;;3.63;;
44130;SDS011;29792;48.726;9.248;2023-08-24T08:57:44;4.65;;;3.35;;
44130;SDS011;29792;48.726;9.248;2023-08-24T09:00:12;4.72;;;3.40;;
44130;SDS011;29792;48.726;9.248;2023-08-24T09:02:42;3.65;;;2.80;;
44130;SDS011;29792;48.726;9.248;2023-08-24T09:05:09;14.13;;;4.05;;
44130;SDS011;29792;48.726;9.248;2023-08-24T09:07:35;7.00;;;3.15;;
44130;SDS011;29792;48.726;9.248;2023-08-24T09:10:01;5.60;;;3.22;;
44130;SDS011;29792;48.726;9.248;2023-08-24T09:12:27;5.55;;;3.22;;
44130;SDS011;29792;48.726;9.248;2023-08-24T09:14:57;3.42;;;3.13;;
44130;SDS011;29792;48.726;9.248;2023-08-24T09:17:22;3.47;;;2.88;;
44130;SDS011;29792;48.726;9.248;2023-08-24T09:19:49;6.13;;;2.85;;
44130;SDS011;29792;48.726;9.248;2023-08-24T09:22:16;6.50;;;3.85;;
44130;SDS011;29792;48.726;9.248;2023-08-24T09:24:41;3.95;;;3.30;;
44130;SDS011;29792;48.726;9.248;2023-08-24T09:27:16;3.63;;;3.33;;
44130;SDS011;29792;48.726;9.248;2023-08-24T09:29:52;3.78;;;3.33;;
44130;SDS011;29792;48.726;9.248;2023-08-24T09:32:21;6.93;;;3.92;;
44130;SDS011;29792;48.726;9.248;2023-08-24T09:34:52;5.47;;;3.47;;
44130;SDS011;29792;48.726;9.248;2023-08-24T09:37:17;5.28;;;3.05;;
44130;SDS011;29792;48.726;9.248;2023-08-24T09:39:42;4.72;;;3.20;;
44130;SDS011;29792;48.726;9.248;2023-08-24T09:42:09;6.70;;;3.67;;
44130;SDS011;29792;48.726;9.248;2023-08-24T09:44:34;4.13;;;3.72;;
44130;SDS011;29792;48.726;9.248;2023-08-24T09:46:59;4.82;;;2.83;;
44130;SDS011;29792;48.726;9.248;2023-08-24T09:49:25;4.22;;;3.80;;
44130;SDS011;29792;48.726;9.248;2023-08-24T09:51:55;4.93;;;3.45;;
44130;SDS011;29792;48.726;9.248;2023-08-24T09:54:22;8.77;;;3.58;;
44130;SDS011;29792;48.726;9.248;2023-08-24T09:56:51;4.25;;;3.88;;
44130;SDS011;29792;48.726;9.248;2023-08-24T09:59:19;6.55;;;3.08;;
44130;SDS011;29792;48.726;9.248;2023-08-24T10:01:49;6.15;;;3.47;;
44130;SDS011;29792;48.726;9.248;2023-08-24T10:04:22;3.38;;;3.08;;
44130;SDS011;29792;48.726;9.248;2023-08-24T10:06:51;4.50;;;2.65;;
44130;SDS011;29792;48.726;9.248;2023-08-24T10:09:25;4.68;;;3.88;;
44130;SDS011;29792;48.726;9.248;2023-08-24T10:12:02;3.03;;;2.55;;
44130;SDS011;29792;48.726;9.248;2023-08-24T10:14:36;4.88;;;3.28;;
44130;SDS011;29792;48.726;9.248;2023-08-24T10:17:11;4.50;;;3.20;;
44130;SDS011;29792;48.726;9.248;2023-08-24T10:19:36;5.13;;;3.45;;
44130;SDS011;29792;48.726;9.248;2023-08-24T10:22:02;6.47;;;4.15;;
44130;SDS011;29792;48.726;9.248;2023-08-24T10:24:28;3.85;;;3.22;;
44130;SDS011;29792;48.726;9.248;2023-08-24T10:26:54;3.95;;;3.55;;
44130;SDS011;29792;48.726;9.248;2023-08-24T10:29:20;4.32;;;3.30;;
44130;SDS011;29792;48.726;9.248;2023-08-24T10:31:46;4.20;;;3.53;;
44130;SDS011;29792;48.726;9.248;2023-08-24T10:34:13;8.05;;;4.35;;
44130;SDS011;29792;48.726;9.248;2023-08-24T10:36:39;6.25;;;3.55;;
44130;SDS011;29792;48.726;9.248;2023-08-24T10:39:05;14.52;;;5.55;;
44130;SDS011;29792;48.726;9.248;2023-08-24T10:44:35;4.57;;;3.40;;
44130;SDS011;29792;48.726;9.248;2023-08-24T10:47:11;3.80;;;3.50;;
44130;SDS011;29792;48.726;9.248;2023-08-24T10:52:25;4.05;;;3.72;;
44130;SDS011;29792;48.726;9.248;2023-08-24T10:54:56;4.90;;;3.65;;
44130;SDS011;29792;48.726;9.248;2023-08-24T10:57:25;5.18;;;3.92;;
44130;SDS011;29792;48.726;9.248;2023-08-24T11:02:31;7.80;;;3.95;;
44130;SDS011;29792;48.726;9.248;2023-08-24T11:05:21;4.55;;;4.05;;
44130;SDS011;29792;48.726;9.248;2023-08-24T11:08:03;4.95;;;3.97;;
44130;SDS011;29792;48.726;9.248;2023-08-24T11:13:11;5.40;;;4.28;;
44130;SDS011;29792;48.726;9.248;2023-08-24T11:20:47;5.45;;;3.78;;
44130;SDS011;29792;48.726;9.248;2023-08-24T11:23:27;8.55;;;4.53;;
44130;SDS011;29792;48.726;9.248;2023-08-24T11:25:53;4.40;;;3.97;;
44130;SDS011;29792;48.726;9.248;2023-08-24T11:28:22;5.28;;;3.75;;
44130;SDS011;29792;48.726;9.248;2023-08-24T11:30:52;5.10;;;3.40;;
44130;SDS011;29792;48.726;9.248;2023-08-24T11:33:28;8.82;;;5.93;;
44130;SDS011;29792;48.726;9.248;2023-08-24T11:35:54;7.18;;;4.05;;
44130;SDS011;29792;48.726;9.248;2023-08-24T11:38:20;4.57;;;3.95;;
44130;SDS011;29792;48.726;9.248;2023-08-24T11:40:45;4.18;;;3.88;;
44130;SDS011;29792;48.726;9.248;2023-08-24T11:43:10;4.95;;;3.55;;
44130;SDS011;29792;48.726;9.248;2023-08-24T11:45:35;5.47;;;4.97;;
44130;SDS011;29792;48.726;9.248;2023-08-24T11:48:02;4.80;;;4.30;;
44130;SDS011;29792;48.726;9.248;2023-08-24T11:50:32;4.75;;;4.22;;
44130;SDS011;29792;48.726;9.248;2023-08-24T11:53:01;5.15;;;3.20;;
44130;SDS011;29792;48.726;9.248;2023-08-24T11:55:27;4.72;;;4.03;;
44130;SDS011;29792;48.726;9.248;2023-08-24T11:57:53;4.05;;;3.63;;
44130;SDS011;29792;48.726;9.248;2023-08-24T12:00:19;5.70;;;3.67;;
44130;SDS011;29792;48.726;9.248;2023-08-24T12:02:46;6.88;;;4.88;;
44130;SDS011;29792;48.726;9.248;2023-08-24T12:05:25;4.40;;;4.00;;
44130;SDS011;29792;48.726;9.248;2023-08-24T12:07:52;4.97;;;3.35;;
44130;SDS011;29792;48.726;9.248;2023-08-24T12:10:18;5.18;;;4.68;;
44130;SDS011;29792;48.726;9.248;2023-08-24T12:12:44;5.38;;;4.22;;
44130;SDS011;29792;48.726;9.248;2023-08-24T12:15:14;4.50;;;4.10;;
44130;SDS011;29792;48.726;9.248;2023-08-24T12:17:45;4.63;;;3.88;;
44130;SDS011;29792;48.726;9.248;2023-08-24T12:20:18;5.15;;;3.25;;
44130;SDS011;29792;48.726;9.248;2023-08-24T12:22:49;3.88;;;3.60;;
44130;SDS011;29792;48.726;9.248;2023-08-24T12:25:16;6.07;;;3.67;;
44130;SDS011;29792;48.726;9.248;2023-08-24T12:27:42;5.05;;;4.55;;
44130;SDS011;29792;48.726;9.248;2023-08-24T12:30:07;6.00;;;4.35;;
44130;SDS011;29792;48.726;9.248;2023-08-24T12:35:27;4.90;;;4.13;;
44130;SDS011;29792;48.726;9.248;2023-08-24T12:37:53;6.25;;;4.20;;
44130;SDS011;29792;48.726;9.248;2023-08-24T12:40:18;4.10;;;3.80;;
44130;SDS011;29792;48.726;9.248;2023-08-24T12:42:43;6.57;;;3.80;;
44130;SDS011;29792;48.726;9.248;2023-08-24T12:45:08;6.10;;;4.25;;
44130;SDS011;29792;48.726;9.248;2023-08-24T12:47:34;6.28;;;3.67;;
44130;SDS011;29792;48.726;9.248;2023-08-24T12:50:02;7.47;;;3.80;;
44130;SDS011;29792;48.726;9.248;2023-08-24T12:52:28;3.60;;;3.28;;
44130;SDS011;29792;48.726;9.248;2023-08-24T12:54:53;6.45;;;3.22;;
44130;SDS011;29792;48.726;9.248;2023-08-24T12:57:19;7.55;;;3.50;;
44130;SDS011;29792;48.726;9.248;2023-08-24T12:59:44;8.95;;;4.55;;
44130;SDS011;29792;48.726;9.248;2023-08-24T13:02:09;5.07;;;4.50;;
44130;SDS011;29792;48.726;9.248;2023-08-24T13:04:34;7.32;;;3.90;;
44130;SDS011;29792;48.726;9.248;2023-08-24T13:07:00;8.55;;;4.30;;
44130;SDS011;29792;48.726;9.248;2023-08-24T13:09:25;7.22;;;3.80;;
44130;SDS011;29792;48.726;9.248;2023-08-24T13:11:51;4.45;;;3.90;;
44130;SDS011;29792;48.726;9.248;2023-08-24T13:14:16;5.95;;;3.50;;
44130;SDS011;29792;48.726;9.248;2023-08-24T13:16:41;4.40;;;3.75;;
44130;SDS011;29792;48.726;9.248;2023-08-24T13:19:06;7.30;;;4.63;;
44130;SDS011;29792;48.726;9.248;2023-08-24T13:21:32;4.57;;;3.33;;
44130;SDS011;29792;48.726;9.248;2023-08-24T13:23:57;4.45;;;3.55;;
44130;SDS011;29792;48.726;9.248;2023-08-24T13:26:23;5.35;;;4.15;;
44130;SDS011;29792;48.726;9.248;2023-08-24T13:28:48;7.03;;;4.30;;
44130;SDS011;29792;48.726;9.248;2023-08-24T13:31:14;6.07;;;3.25;;
44130;SDS011;29792;48.726;9.248;2023-08-24T13:33:39;8.02;;;4.28;;
44130;SDS011;29792;48.726;9.248;2023-08-24T13:36:04;5.13;;;3.60;;
44130;SDS011;29792;48.726;9.248;2023-08-24T13:38:30;7.15;;;3.35;;
44130;SDS011;29792;48.726;9.248;2023-08-24T13:40:55;8.32;;;3.85;;
44130;SDS011;29792;48.726;9.248;2023-08-24T13:43:21;6.45;;;3.83;;
44130;SDS011;29792;48.726;9.248;2023-08-24T13:45:46;10.35;;;4.32;;
44130;SDS011;29792;48.726;9.248;2023-08-24T13:48:12;6.85;;;4.28;;
44130;SDS011;29792;48.726;9.248;2023-08-24T13:50:37;9.13;;;4.90;;
44130;SDS011;29792;48.726;9.248;2023-08-24T13:53:02;8.00;;;4.05;;
44130;SDS011;29792;48.726;9.248;2023-08-24T13:55:28;8.05;;;3.33;;
44130;SDS011;29792;48.726;9.248;2023-08-24T13:57:54;5.82;;;3.50;;
44130;SDS011;29792;48.726;9.248;2023-08-24T14:00:19;8.15;;;3.22;;
44130;SDS011;29792;48.726;9.248;2023-08-24T14:02:44;5.20;;;3.67;;
44130;SDS011;29792;48.726;9.248;2023-08-24T14:05:10;14.20;;;3.13;;
44130;SDS011;29792;48.726;9.248;2023-08-24T14:07:36;7.28;;;2.97;;
44130;SDS011;29792;48.726;9.248;2023-08-24T14:10:02;9.82;;;4.20;;
44130;SDS011;29792;48.726;9.248;2023-08-24T14:12:28;3.00;;;2.58;;
44130;SDS011;29792;48.726;9.248;2023-08-24T14:14:54;6.32;;;3.80;;
44130;SDS011;29792;48.726;9.248;2023-08-24T14:17:19;7.43;;;3.25;;
44130;SDS011;29792;48.726;9.248;2023-08-24T14:19:45;12.20;;;5.78;;
44130;SDS011;29792;48.726;9.248;2023-08-24T14:22:10;8.73;;;3.00;;
44130;SDS011;29792;48.726;9.248;2023-08-24T14:24:35;6.15;;;2.78;;
44130;SDS011;29792;48.726;9.248;2023-08-24T14:27:01;7.45;;;2.97;;
44130;SDS011;29792;48.726;9.248;2023-08-24T14:29:26;2.90;;;2.60;;
44130;SDS011;29792;48.726;9.248;2023-08-24T14:31:51;7.35;;;4.38;;
44130;SDS011;29792;48.726;9.248;2023-08-24T14:34:16;6.30;;;3.65;;
44130;SDS011;29792;48.726;9.248;2023-08-24T14:36:42;7.50;;;3.90;;
44130;SDS011;29792;48.726;9.248;2023-08-24T14:39:07;9.40;;;3.83;;
44130;SDS011;29792;48.726;9.248;2023-08-24T14:41:32;5.57;;;2.88;;
44130;SDS011;29792;48.726;9.248;2023-08-24T14:43:57;5.00;;;2.63;;
44130;SDS011;29792;48.726;9.248;2023-08-24T14:46:23;7.75;;;3.42;;
44130;SDS011;29792;48.726;9.248;2023-08-24T14:48:48;2.95;;;2.60;;
44130;SDS011;29792;48.726;9.248;2023-08-24T14:51:13;19.63;;;4.55;;
44130;SDS011;29792;48.726;9.248;2023-08-24T14:53:39;5.00;;;2.92;;
44130;SDS011;29792;48.726;9.248;2023-08-24T14:56:04;17.83;;;4.63;;
44130;SDS011;29792;48.726;9.248;2023-08-24T14:58:29;6.75;;;4.03;;
44130;SDS011;29792;48.726;9.248;2023-08-24T15:00:55;6.03;;;3.90;;
44130;SDS011;29792;48.726;9.248;2023-08-24T15:03:22;5.88;;;3.13;;
44130;SDS011;29792;48.726;9.248;2023-08-24T15:06:01;4.28;;;2.90;;